sensor_id;sensor_type;location;lat;lon;timestamp;P1;durP1;ratioP1;P2;durP2;ratioP2
35909;SDS011;22004;49.120;-0.200;2023-06-14T00:01:00;38.45;;;24.83;;
35909;SDS011;22004;49.120;-0.200;2023-06-14T00:03:28;38.03;;;25.25;;
35909;SDS011;22004;49.120;-0.200;2023-06-14T00:05:54;42.50;;;24.92;;
35909;SDS011;22004;49.120;-0.200;2023-06-14T00:08:19;41.53;;;25.02;;
35909;SDS011;22004;49.120;-0.200;2023-06-14T00:10:46;42.22;;;24.23;;
35909;SDS011;22004;49.120;-0.200;2023-06-14T00:13:11;37.45;;;24.63;;
35909;SDS011;22004;49.120;-0.200;2023-06-14T00:15:37;38.50;;;23.75;;
35909;SDS011;22004;49.120;-0.200;2023-06-14T00:18:02;37.17;;;22.40;;
35909;SDS011;22004;49.120;-0.200;2023-06-14T00:20:28;44.42;;;23.35;;
35909;SDS011;22004;49.120;-0.200;2023-06-14T00:22:55;36.42;;;23.20;;
35909;SDS011;22004;49.120;-0.200;2023-06-14T00:25:22;36.13;;;22.88;;
35909;SDS011;22004;49.120;-0.200;2023-06-14T00:27:50;39.67;;;22.42;;
35909;SDS011;22004;49.120;-0.200;2023-06-14T00:30:15;34.63;;;22.75;;
35909;SDS011;22004;49.120;-0.200;2023-06-14T00:32:41;42.20;;;22.58;;
35909;SDS011;22004;49.120;-0.200;2023-06-14T00:35:08;33.83;;;22.67;;
35909;SDS011;22004;49.120;-0.200;2023-06-14T00:37:33;37.83;;;23.10;;
35909;SDS011;22004;49.120;-0.200;2023-06-14T00:39:59;35.13;;;22.30;;
35909;SDS011;22004;49.120;-0.200;2023-06-14T00:42:25;34.45;;;22.17;;
35909;SDS011;22004;49.120;-0.200;2023-06-14T00:44:51;33.03;;;22.52;;
35909;SDS011;22004;49.120;-0.200;2023-06-14T00:47:16;34.67;;;21.20;;
35909;SDS011;22004;49.120;-0.200;2023-06-14T00:49:41;29.77;;;21.25;;
35909;SDS011;22004;49.120;-0.200;2023-06-14T00:52:07;35.50;;;21.85;;
35909;SDS011;22004;49.120;-0.200;2023-06-14T00:54:37;36.38;;;21.85;;
35909;SDS011;22004;49.120;-0.200;2023-06-14T00:57:02;33.75;;;22.02;;
35909;SDS011;22004;49.120;-0.200;2023-06-14T00:59:28;35.45;;;21.48;;
35909;SDS011;22004;49.120;-0.200;2023-06-14T01:01:53;45.63;;;23.65;;
35909;SDS011;22004;49.120;-0.200;2023-06-14T01:04:18;36.03;;;21.42;;
35909;SDS011;22004;49.120;-0.200;2023-06-14T01:06:56;38.50;;;23.05;;
35909;SDS011;22004;49.120;-0.200;2023-06-14T01:09:40;32.67;;;20.30;;
35909;SDS011;22004;49.120;-0.200;2023-06-14T01:15:04;39.42;;;21.77;;
35909;SDS011;22004;49.120;-0.200;2023-06-14T01:17:30;39.00;;;22.23;;
35909;SDS011;22004;49.120;-0.200;2023-06-14T01:19:58;41.90;;;22.85;;
35909;SDS011;22004;49.120;-0.200;2023-06-14T01:22:26;36.90;;;20.70;;
35909;SDS011;22004;49.120;-0.200;2023-06-14T01:24:52;35.20;;;21.30;;
35909;SDS011;22004;49.120;-0.200;2023-06-14T01:27:20;33.92;;;20.13;;
35909;SDS011;22004;49.120;-0.200;2023-06-14T01:29:53;36.20;;;21.08;;
35909;SDS011;22004;49.120;-0.200;2023-06-14T01:32:21;32.65;;;20.23;;
35909;SDS011;22004;49.120;-0.200;2023-06-14T01:34:48;40.90;;;21.60;;
35909;SDS011;22004;49.120;-0.200;2023-06-14T01:37:13;33.80;;;20.35;;
35909;SDS011;22004;49.120;-0.200;2023-06-14T01:39:39;36.55;;;19.83;;
35909;SDS011;22004;49.120;-0.200;2023-06-14T01:42:06;37.25;;;20.23;;
35909;SDS011;22004;49.120;-0.200;2023-06-14T01:44:32;31.35;;;19.77;;
35909;SDS011;22004;49.120;-0.200;2023-06-14T01:46:57;36.80;;;19.98;;
35909;SDS011;22004;49.120;-0.200;2023-06-14T01:49:23;35.75;;;20.13;;
35909;SDS011;22004;49.120;-0.200;2023-06-14T01:51:49;30.38;;;20.02;;
35909;SDS011;22004;49.120;-0.200;2023-06-14T01:54:14;36.17;;;20.48;;
35909;SDS011;22004;49.120;-0.200;2023-06-14T01:56:39;32.10;;;19.10;;
35909;SDS011;22004;49.120;-0.200;2023-06-14T01:59:05;34.88;;;19.30;;
35909;SDS011;22004;49.120;-0.200;2023-06-14T02:01:30;32.35;;;18.60;;
35909;SDS011;22004;49.120;-0.200;2023-06-14T02:03:56;32.83;;;18.77;;
35909;SDS011;22004;49.120;-0.200;2023-06-14T02:06:21;34.35;;;18.58;;
35909;SDS011;22004;49.120;-0.200;2023-06-14T02:08:46;31.73;;;18.42;;
35909;SDS011;22004;49.120;-0.200;2023-06-14T02:11:12;36.60;;;18.08;;
35909;SDS011;22004;49.120;-0.200;2023-06-14T02:13:37;33.35;;;19.77;;
35909;SDS011;22004;49.120;-0.200;2023-06-14T02:16:02;39.72;;;20.40;;
35909;SDS011;22004;49.120;-0.200;2023-06-14T02:18:28;35.10;;;18.40;;
35909;SDS011;22004;49.120;-0.200;2023-06-14T02:20:53;33.60;;;18.33;;
35909;SDS011;22004;49.120;-0.200;2023-06-14T02:23:19;33.17;;;19.05;;
35909;SDS011;22004;49.120;-0.200;2023-06-14T02:25:44;35.92;;;18.48;;
35909;SDS011;22004;49.120;-0.200;2023-06-14T02:28:10;30.92;;;18.23;;
35909;SDS011;22004;49.120;-0.200;2023-06-14T02:30:36;34.83;;;19.27;;
35909;SDS011;22004;49.120;-0.200;2023-06-14T02:33:02;33.45;;;17.40;;
35909;SDS011;22004;49.120;-0.200;2023-06-14T02:35:28;35.13;;;18.85;;
35909;SDS011;22004;49.120;-0.200;2023-06-14T02:37:53;32.90;;;18.75;;
35909;SDS011;22004;49.120;-0.200;2023-06-14T02:40:19;29.05;;;17.42;;
35909;SDS011;22004;49.120;-0.200;2023-06-14T02:42:45;28.98;;;17.85;;
35909;SDS011;22004;49.120;-0.200;2023-06-14T02:45:10;35.05;;;18.33;;
35909;SDS011;22004;49.120;-0.200;2023-06-14T02:47:35;30.92;;;18.38;;
35909;SDS011;22004;49.120;-0.200;2023-06-14T02:50:01;30.70;;;17.55;;
35909;SDS011;22004;49.120;-0.200;2023-06-14T02:52:27;36.20;;;17.75;;
35909;SDS011;22004;49.120;-0.200;2023-06-14T02:54:53;29.60;;;17.35;;
35909;SDS011;22004;49.120;-0.200;2023-06-14T02:57:19;31.13;;;17.25;;
35909;SDS011;22004;49.120;-0.200;2023-06-14T02:59:45;29.17;;;16.38;;
35909;SDS011;22004;49.120;-0.200;2023-06-14T03:02:10;34.20;;;16.27;;
35909;SDS011;22004;49.120;-0.200;2023-06-14T03:04:36;29.67;;;15.98;;
35909;SDS011;22004;49.120;-0.200;2023-06-14T03:07:02;28.17;;;16.20;;
35909;SDS011;22004;49.120;-0.200;2023-06-14T03:09:33;30.20;;;16.65;;
35909;SDS011;22004;49.120;-0.200;2023-06-14T03:12:00;31.38;;;16.50;;
35909;SDS011;22004;49.120;-0.200;2023-06-14T03:14:25;32.58;;;15.63;;
35909;SDS011;22004;49.120;-0.200;2023-06-14T03:16:50;38.97;;;15.82;;
35909;SDS011;22004;49.120;-0.200;2023-06-14T03:19:16;33.38;;;16.17;;
35909;SDS011;22004;49.120;-0.200;2023-06-14T03:21:41;32.88;;;16.73;;
35909;SDS011;22004;49.120;-0.200;2023-06-14T03:24:09;30.80;;;16.63;;
35909;SDS011;22004;49.120;-0.200;2023-06-14T03:26:34;32.30;;;16.05;;
35909;SDS011;22004;49.120;-0.200;2023-06-14T03:29:02;31.20;;;16.05;;
35909;SDS011;22004;49.120;-0.200;2023-06-14T03:31:28;26.20;;;15.05;;
35909;SDS011;22004;49.120;-0.200;2023-06-14T03:33:57;29.88;;;15.43;;
35909;SDS011;22004;49.120;-0.200;2023-06-14T03:36:23;33.05;;;15.52;;
35909;SDS011;22004;49.120;-0.200;2023-06-14T03:38:48;32.13;;;15.48;;
35909;SDS011;22004;49.120;-0.200;2023-06-14T03:41:13;39.95;;;16.13;;
35909;SDS011;22004;49.120;-0.200;2023-06-14T03:43:39;28.05;;;14.95;;
35909;SDS011;22004;49.120;-0.200;2023-06-14T03:46:04;24.17;;;13.95;;
35909;SDS011;22004;49.120;-0.200;2023-06-14T03:48:29;25.88;;;14.60;;
35909;SDS011;22004;49.120;-0.200;2023-06-14T03:50:55;31.17;;;14.52;;
35909;SDS011;22004;49.120;-0.200;2023-06-14T03:53:21;32.85;;;15.40;;
35909;SDS011;22004;49.120;-0.200;2023-06-14T03:55:48;30.20;;;15.43;;
35909;SDS011;22004;49.120;-0.200;2023-06-14T03:58:15;29.77;;;14.52;;
35909;SDS011;22004;49.120;-0.200;2023-06-14T04:00:40;26.67;;;15.13;;
35909;SDS011;22004;49.120;-0.200;2023-06-14T04:03:06;35.85;;;15.45;;
35909;SDS011;22004;49.120;-0.200;2023-06-14T04:05:31;33.10;;;15.38;;
35909;SDS011;22004;49.120;-0.200;2023-06-14T04:07:57;36.20;;;15.45;;
35909;SDS011;22004;49.120;-0.200;2023-06-14T04:10:23;31.85;;;15.95;;
35909;SDS011;22004;49.120;-0.200;2023-06-14T04:12:49;31.85;;;14.45;;
35909;SDS011;22004;49.120;-0.200;2023-06-14T04:15:15;30.02;;;13.98;;
35909;SDS011;22004;49.120;-0.200;2023-06-14T04:17:41;31.48;;;15.00;;
35909;SDS011;22004;49.120;-0.200;2023-06-14T04:20:06;33.13;;;15.02;;
35909;SDS011;22004;49.120;-0.200;2023-06-14T04:22:34;27.42;;;14.00;;
35909;SDS011;22004;49.120;-0.200;2023-06-14T04:24:59;30.10;;;14.85;;
35909;SDS011;22004;49.120;-0.200;2023-06-14T04:27:28;32.63;;;15.05;;
35909;SDS011;22004;49.120;-0.200;2023-06-14T04:29:56;28.88;;;14.90;;
35909;SDS011;22004;49.120;-0.200;2023-06-14T04:32:28;26.52;;;13.65;;
35909;SDS011;22004;49.120;-0.200;2023-06-14T04:34:58;29.77;;;14.23;;
35909;SDS011;22004;49.120;-0.200;2023-06-14T04:37:27;30.75;;;13.70;;
35909;SDS011;22004;49.120;-0.200;2023-06-14T04:39:54;29.92;;;14.55;;
35909;SDS011;22004;49.120;-0.200;2023-06-14T04:42:21;27.77;;;13.18;;
35909;SDS011;22004;49.120;-0.200;2023-06-14T04:44:49;22.42;;;13.45;;
35909;SDS011;22004;49.120;-0.200;2023-06-14T04:47:16;28.52;;;13.02;;
35909;SDS011;22004;49.120;-0.200;2023-06-14T04:49:41;30.85;;;13.50;;
35909;SDS011;22004;49.120;-0.200;2023-06-14T04:52:07;32.22;;;13.18;;
35909;SDS011;22004;49.120;-0.200;2023-06-14T04:54:35;30.17;;;13.20;;
35909;SDS011;22004;49.120;-0.200;2023-06-14T04:57:02;30.17;;;13.90;;
35909;SDS011;22004;49.120;-0.200;2023-06-14T04:59:29;26.08;;;13.18;;
35909;SDS011;22004;49.120;-0.200;2023-06-14T05:01:58;30.90;;;13.02;;
35909;SDS011;22004;49.120;-0.200;2023-06-14T05:04:24;27.80;;;12.75;;
35909;SDS011;22004;49.120;-0.200;2023-06-14T05:06:51;28.38;;;13.57;;
35909;SDS011;22004;49.120;-0.200;2023-06-14T05:09:19;39.97;;;12.75;;
35909;SDS011;22004;49.120;-0.200;2023-06-14T05:11:45;28.23;;;12.98;;
35909;SDS011;22004;49.120;-0.200;2023-06-14T05:14:10;27.98;;;11.90;;
35909;SDS011;22004;49.120;-0.200;2023-06-14T05:16:37;34.53;;;12.13;;
35909;SDS011;22004;49.120;-0.200;2023-06-14T05:19:02;31.27;;;12.10;;
35909;SDS011;22004;49.120;-0.200;2023-06-14T05:21:29;27.38;;;11.43;;
35909;SDS011;22004;49.120;-0.200;2023-06-14T05:23:55;28.30;;;11.45;;
35909;SDS011;22004;49.120;-0.200;2023-06-14T05:26:20;25.83;;;11.73;;
35909;SDS011;22004;49.120;-0.200;2023-06-14T05:28:48;23.35;;;11.07;;
35909;SDS011;22004;49.120;-0.200;2023-06-14T05:31:14;29.25;;;11.90;;
35909;SDS011;22004;49.120;-0.200;2023-06-14T05:33:40;32.53;;;11.10;;
35909;SDS011;22004;49.120;-0.200;2023-06-14T05:36:05;23.40;;;11.27;;
35909;SDS011;22004;49.120;-0.200;2023-06-14T05:38:30;29.27;;;11.35;;
35909;SDS011;22004;49.120;-0.200;2023-06-14T05:40:56;31.00;;;10.93;;
35909;SDS011;22004;49.120;-0.200;2023-06-14T05:43:21;30.65;;;11.38;;
35909;SDS011;22004;49.120;-0.200;2023-06-14T05:45:46;32.28;;;10.23;;
35909;SDS011;22004;49.120;-0.200;2023-06-14T05:48:12;33.28;;;11.07;;
35909;SDS011;22004;49.120;-0.200;2023-06-14T05:50:37;36.97;;;10.35;;
35909;SDS011;22004;49.120;-0.200;2023-06-14T05:53:02;32.15;;;10.95;;
35909;SDS011;22004;49.120;-0.200;2023-06-14T05:55:28;35.30;;;10.93;;
35909;SDS011;22004;49.120;-0.200;2023-06-14T05:57:53;29.55;;;9.90;;
35909;SDS011;22004;49.120;-0.200;2023-06-14T06:00:18;27.55;;;10.35;;
35909;SDS011;22004;49.120;-0.200;2023-06-14T06:02:45;36.15;;;9.93;;
35909;SDS011;22004;49.120;-0.200;2023-06-14T06:05:11;31.20;;;10.48;;
35909;SDS011;22004;49.120;-0.200;2023-06-14T06:07:37;33.50;;;10.65;;
35909;SDS011;22004;49.120;-0.200;2023-06-14T06:10:05;47.75;;;10.70;;
35909;SDS011;22004;49.120;-0.200;2023-06-14T06:12:31;28.35;;;9.98;;
35909;SDS011;22004;49.120;-0.200;2023-06-14T06:14:57;33.78;;;10.32;;
35909;SDS011;22004;49.120;-0.200;2023-06-14T06:17:24;34.70;;;10.20;;
35909;SDS011;22004;49.120;-0.200;2023-06-14T06:19:50;35.95;;;10.55;;
35909;SDS011;22004;49.120;-0.200;2023-06-14T06:22:15;40.50;;;9.88;;
35909;SDS011;22004;49.120;-0.200;2023-06-14T06:24:40;36.60;;;10.52;;
35909;SDS011;22004;49.120;-0.200;2023-06-14T06:27:06;39.88;;;9.77;;
35909;SDS011;22004;49.120;-0.200;2023-06-14T06:29:33;30.67;;;9.50;;
35909;SDS011;22004;49.120;-0.200;2023-06-14T06:31:59;39.08;;;10.52;;
35909;SDS011;22004;49.120;-0.200;2023-06-14T06:34:25;34.15;;;11.27;;
35909;SDS011;22004;49.120;-0.200;2023-06-14T06:36:50;27.60;;;9.98;;
35909;SDS011;22004;49.120;-0.200;2023-06-14T06:39:16;30.00;;;9.32;;
35909;SDS011;22004;49.120;-0.200;2023-06-14T06:41:41;33.67;;;9.65;;
35909;SDS011;22004;49.120;-0.200;2023-06-14T06:44:07;37.33;;;9.30;;
35909;SDS011;22004;49.120;-0.200;2023-06-14T06:46:32;28.63;;;9.40;;
35909;SDS011;22004;49.120;-0.200;2023-06-14T06:48:58;37.40;;;10.15;;
35909;SDS011;22004;49.120;-0.200;2023-06-14T06:51:25;50.35;;;10.00;;
35909;SDS011;22004;49.120;-0.200;2023-06-14T06:53:53;43.78;;;10.88;;
35909;SDS011;22004;49.120;-0.200;2023-06-14T06:56:20;42.80;;;9.52;;
35909;SDS011;22004;49.120;-0.200;2023-06-14T06:58:47;37.63;;;9.77;;
35909;SDS011;22004;49.120;-0.200;2023-06-14T07:01:13;31.38;;;9.73;;
35909;SDS011;22004;49.120;-0.200;2023-06-14T07:03:39;33.72;;;10.30;;
35909;SDS011;22004;49.120;-0.200;2023-06-14T07:06:04;48.35;;;10.80;;
35909;SDS011;22004;49.120;-0.200;2023-06-14T07:08:29;37.83;;;9.90;;
35909;SDS011;22004;49.120;-0.200;2023-06-14T07:10:55;51.88;;;11.40;;
35909;SDS011;22004;49.120;-0.200;2023-06-14T07:13:20;31.05;;;10.15;;
35909;SDS011;22004;49.120;-0.200;2023-06-14T07:15:46;37.28;;;9.32;;
35909;SDS011;22004;49.120;-0.200;2023-06-14T07:18:11;37.58;;;10.57;;
35909;SDS011;22004;49.120;-0.200;2023-06-14T07:20:37;35.97;;;9.50;;
35909;SDS011;22004;49.120;-0.200;2023-06-14T07:23:03;41.15;;;10.77;;
35909;SDS011;22004;49.120;-0.200;2023-06-14T07:25:28;34.15;;;10.93;;
35909;SDS011;22004;49.120;-0.200;2023-06-14T07:27:54;47.50;;;10.80;;
35909;SDS011;22004;49.120;-0.200;2023-06-14T07:30:20;38.13;;;10.23;;
35909;SDS011;22004;49.120;-0.200;2023-06-14T07:32:45;47.20;;;11.38;;
35909;SDS011;22004;49.120;-0.200;2023-06-14T07:35:11;53.92;;;11.40;;
35909;SDS011;22004;49.120;-0.200;2023-06-14T07:37:36;29.08;;;8.88;;
35909;SDS011;22004;49.120;-0.200;2023-06-14T07:40:01;58.70;;;12.77;;
35909;SDS011;22004;49.120;-0.200;2023-06-14T07:42:31;55.83;;;11.23;;
35909;SDS011;22004;49.120;-0.200;2023-06-14T07:44:58;39.30;;;10.90;;
35909;SDS011;22004;49.120;-0.200;2023-06-14T07:47:23;38.58;;;10.40;;
35909;SDS011;22004;49.120;-0.200;2023-06-14T07:49:48;51.00;;;11.93;;
35909;SDS011;22004;49.120;-0.200;2023-06-14T07:52:14;59.53;;;12.73;;
35909;SDS011;22004;49.120;-0.200;2023-06-14T07:54:39;60.80;;;14.82;;
35909;SDS011;22004;49.120;-0.200;2023-06-14T07:57:06;48.08;;;12.32;;
35909;SDS011;22004;49.120;-0.200;2023-06-14T07:59:31;50.60;;;14.80;;
35909;SDS011;22004;49.120;-0.200;2023-06-14T08:01:56;55.35;;;15.48;;
35909;SDS011;22004;49.120;-0.200;2023-06-14T08:04:22;56.50;;;13.57;;
35909;SDS011;22004;49.120;-0.200;2023-06-14T08:06:48;55.90;;;13.05;;
35909;SDS011;22004;49.120;-0.200;2023-06-14T08:09:14;39.85;;;10.90;;
35909;SDS011;22004;49.120;-0.200;2023-06-14T08:11:39;56.60;;;13.10;;
35909;SDS011;22004;49.120;-0.200;2023-06-14T08:14:05;62.67;;;13.57;;
35909;SDS011;22004;49.120;-0.200;2023-06-14T08:16:30;53.05;;;11.93;;
35909;SDS011;22004;49.120;-0.200;2023-06-14T08:18:55;59.50;;;10.48;;
35909;SDS011;22004;49.120;-0.200;2023-06-14T08:21:21;43.10;;;10.52;;
35909;SDS011;22004;49.120;-0.200;2023-06-14T08:23:46;42.67;;;10.32;;
35909;SDS011;22004;49.120;-0.200;2023-06-14T08:26:12;46.28;;;11.18;;
35909;SDS011;22004;49.120;-0.200;2023-06-14T08:28:37;59.72;;;10.98;;
35909;SDS011;22004;49.120;-0.200;2023-06-14T08:31:03;33.75;;;10.18;;
35909;SDS011;22004;49.120;-0.200;2023-06-14T08:33:28;53.58;;;11.30;;
35909;SDS011;22004;49.120;-0.200;2023-06-14T08:35:53;55.58;;;11.10;;
35909;SDS011;22004;49.120;-0.200;2023-06-14T08:38:19;57.35;;;11.80;;
35909;SDS011;22004;49.120;-0.200;2023-06-14T08:40:45;39.90;;;10.05;;
35909;SDS011;22004;49.120;-0.200;2023-06-14T08:43:15;60.22;;;11.57;;
35909;SDS011;22004;49.120;-0.200;2023-06-14T08:45:41;52.85;;;10.98;;
35909;SDS011;22004;49.120;-0.200;2023-06-14T08:48:06;53.17;;;10.85;;
35909;SDS011;22004;49.120;-0.200;2023-06-14T08:50:32;42.72;;;10.75;;
35909;SDS011;22004;49.120;-0.200;2023-06-14T08:53:01;41.97;;;10.35;;
35909;SDS011;22004;49.120;-0.200;2023-06-14T08:55:28;51.55;;;12.10;;
35909;SDS011;22004;49.120;-0.200;2023-06-14T08:57:55;49.97;;;11.80;;
35909;SDS011;22004;49.120;-0.200;2023-06-14T09:00:24;59.67;;;12.05;;
35909;SDS011;22004;49.120;-0.200;2023-06-14T09:02:51;60.75;;;12.50;;
35909;SDS011;22004;49.120;-0.200;2023-06-14T09:05:24;57.35;;;11.85;;
35909;SDS011;22004;49.120;-0.200;2023-06-14T09:07:50;60.85;;;11.73;;
35909;SDS011;22004;49.120;-0.200;2023-06-14T09:10:16;33.40;;;10.10;;
35909;SDS011;22004;49.120;-0.200;2023-06-14T09:12:42;49.25;;;11.18;;
35909;SDS011;22004;49.120;-0.200;2023-06-14T09:15:08;34.03;;;10.38;;
35909;SDS011;22004;49.120;-0.200;2023-06-14T09:17:43;53.65;;;10.95;;
35909;SDS011;22004;49.120;-0.200;2023-06-14T09:20:08;53.80;;;11.77;;
35909;SDS011;22004;49.120;-0.200;2023-06-14T09:22:35;57.17;;;12.15;;
35909;SDS011;22004;49.120;-0.200;2023-06-14T09:25:04;46.08;;;10.52;;
35909;SDS011;22004;49.120;-0.200;2023-06-14T09:27:31;49.15;;;11.00;;
35909;SDS011;22004;49.120;-0.200;2023-06-14T09:29:57;64.18;;;12.20;;
35909;SDS011;22004;49.120;-0.200;2023-06-14T09:32:23;47.35;;;10.82;;
35909;SDS011;22004;49.120;-0.200;2023-06-14T09:34:49;43.03;;;10.25;;
35909;SDS011;22004;49.120;-0.200;2023-06-14T09:37:30;50.67;;;12.20;;
35909;SDS011;22004;49.120;-0.200;2023-06-14T09:39:57;47.25;;;10.43;;
35909;SDS011;22004;49.120;-0.200;2023-06-14T09:42:23;49.50;;;11.48;;
35909;SDS011;22004;49.120;-0.200;2023-06-14T09:44:54;46.25;;;11.60;;
35909;SDS011;22004;49.120;-0.200;2023-06-14T09:47:20;47.10;;;10.65;;
35909;SDS011;22004;49.120;-0.200;2023-06-14T09:49:46;40.75;;;11.40;;
35909;SDS011;22004;49.120;-0.200;2023-06-14T09:52:17;33.67;;;9.38;;
35909;SDS011;22004;49.120;-0.200;2023-06-14T09:54:44;42.95;;;11.05;;
35909;SDS011;22004;49.120;-0.200;2023-06-14T09:57:12;36.45;;;11.07;;
35909;SDS011;22004;49.120;-0.200;2023-06-14T09:59:42;35.75;;;9.23;;
35909;SDS011;22004;49.120;-0.200;2023-06-14T10:02:20;44.90;;;10.43;;
35909;SDS011;22004;49.120;-0.200;2023-06-14T10:04:55;36.20;;;9.40;;
35909;SDS011;22004;49.120;-0.200;2023-06-14T10:07:27;42.08;;;10.13;;
35909;SDS011;22004;49.120;-0.200;2023-06-14T10:09:57;40.45;;;9.90;;
35909;SDS011;22004;49.120;-0.200;2023-06-14T10:12:23;36.78;;;9.60;;
35909;SDS011;22004;49.120;-0.200;2023-06-14T10:14:49;39.40;;;9.70;;
35909;SDS011;22004;49.120;-0.200;2023-06-14T10:18:02;37.28;;;10.27;;
35909;SDS011;22004;49.120;-0.200;2023-06-14T10:23:01;50.05;;;10.32;;
35909;SDS011;22004;49.120;-0.200;2023-06-14T10:25:33;36.05;;;10.02;;
35909;SDS011;22004;49.120;-0.200;2023-06-14T10:33:49;30.52;;;9.00;;
35909;SDS011;22004;49.120;-0.200;2023-06-14T10:38:46;35.72;;;9.10;;
35909;SDS011;22004;49.120;-0.200;2023-06-14T10:41:22;38.63;;;9.93;;
35909;SDS011;22004;49.120;-0.200;2023-06-14T10:43:48;36.25;;;10.45;;
35909;SDS011;22004;49.120;-0.200;2023-06-14T10:48:43;34.60;;;9.88;;
35909;SDS011;22004;49.120;-0.200;2023-06-14T10:51:15;40.70;;;9.60;;
35909;SDS011;22004;49.120;-0.200;2023-06-14T10:53:45;43.08;;;9.77;;
35909;SDS011;22004;49.120;-0.200;2023-06-14T10:56:29;33.78;;;9.68;;
35909;SDS011;22004;49.120;-0.200;2023-06-14T10:58:56;48.38;;;9.20;;
35909;SDS011;22004;49.120;-0.200;2023-06-14T11:01:49;34.53;;;9.88;;
35909;SDS011;22004;49.120;-0.200;2023-06-14T11:04:22;35.08;;;9.73;;
35909;SDS011;22004;49.120;-0.200;2023-06-14T11:07:58;45.85;;;10.15;;
35909;SDS011;22004;49.120;-0.200;2023-06-14T11:10:17;27.55;;;8.85;;
35909;SDS011;22004;49.120;-0.200;2023-06-14T11:12:48;30.02;;;9.80;;
35909;SDS011;22004;49.120;-0.200;2023-06-14T11:15:14;40.17;;;10.27;;
35909;SDS011;22004;49.120;-0.200;2023-06-14T11:17:39;29.88;;;9.48;;
35909;SDS011;22004;49.120;-0.200;2023-06-14T11:20:16;33.63;;;9.77;;
35909;SDS011;22004;49.120;-0.200;2023-06-14T11:22:42;27.75;;;9.07;;
35909;SDS011;22004;49.120;-0.200;2023-06-14T11:25:13;39.70;;;11.18;;
35909;SDS011;22004;49.120;-0.200;2023-06-14T11:27:41;32.35;;;9.82;;
35909;SDS011;22004;49.120;-0.200;2023-06-14T11:30:07;41.35;;;10.95;;
35909;SDS011;22004;49.120;-0.200;2023-06-14T11:32:34;29.85;;;10.07;;
35909;SDS011;22004;49.120;-0.200;2023-06-14T11:35:01;35.55;;;9.52;;
35909;SDS011;22004;49.120;-0.200;2023-06-14T11:37:27;29.65;;;9.10;;
35909;SDS011;22004;49.120;-0.200;2023-06-14T11:39:58;32.15;;;10.85;;
35909;SDS011;22004;49.120;-0.200;2023-06-14T11:42:24;29.17;;;9.18;;
35909;SDS011;22004;49.120;-0.200;2023-06-14T11:44:51;28.40;;;9.27;;
35909;SDS011;22004;49.120;-0.200;2023-06-14T11:47:17;28.42;;;9.07;;
35909;SDS011;22004;49.120;-0.200;2023-06-14T11:49:43;24.48;;;8.90;;
35909;SDS011;22004;49.120;-0.200;2023-06-14T11:52:08;34.05;;;8.50;;
35909;SDS011;22004;49.120;-0.200;2023-06-14T11:54:34;29.80;;;9.20;;
35909;SDS011;22004;49.120;-0.200;2023-06-14T11:57:00;33.13;;;9.88;;
35909;SDS011;22004;49.120;-0.200;2023-06-14T11:59:26;28.45;;;9.20;;
35909;SDS011;22004;49.120;-0.200;2023-06-14T12:01:53;30.92;;;9.85;;
35909;SDS011;22004;49.120;-0.200;2023-06-14T12:04:28;35.75;;;9.10;;
35909;SDS011;22004;49.120;-0.200;2023-06-14T12:06:54;23.83;;;9.85;;
35909;SDS011;22004;49.120;-0.200;2023-06-14T12:09:20;27.27;;;9.27;;
35909;SDS011;22004;49.120;-0.200;2023-06-14T12:11:48;31.17;;;9.77;;
35909;SDS011;22004;49.120;-0.200;2023-06-14T12:14:13;25.58;;;10.38;;
35909;SDS011;22004;49.120;-0.200;2023-06-14T12:16:39;24.63;;;9.05;;
35909;SDS011;22004;49.120;-0.200;2023-06-14T12:19:13;26.17;;;9.48;;
35909;SDS011;22004;49.120;-0.200;2023-06-14T12:21:40;29.15;;;10.82;;
35909;SDS011;22004;49.120;-0.200;2023-06-14T12:24:07;26.15;;;9.80;;
35909;SDS011;22004;49.120;-0.200;2023-06-14T12:26:33;28.27;;;9.50;;
35909;SDS011;22004;49.120;-0.200;2023-06-14T12:28:58;29.55;;;9.52;;
35909;SDS011;22004;49.120;-0.200;2023-06-14T12:31:24;36.03;;;10.35;;
35909;SDS011;22004;49.120;-0.200;2023-06-14T12:33:50;32.28;;;9.27;;
35909;SDS011;22004;49.120;-0.200;2023-06-14T12:36:16;30.55;;;10.23;;
35909;SDS011;22004;49.120;-0.200;2023-06-14T12:38:42;28.50;;;9.95;;
35909;SDS011;22004;49.120;-0.200;2023-06-14T12:41:07;28.17;;;10.60;;
35909;SDS011;22004;49.120;-0.200;2023-06-14T12:43:33;24.98;;;10.13;;
35909;SDS011;22004;49.120;-0.200;2023-06-14T12:45:59;30.15;;;10.82;;
35909;SDS011;22004;49.120;-0.200;2023-06-14T12:48:25;28.35;;;10.32;;
35909;SDS011;22004;49.120;-0.200;2023-06-14T12:50:52;33.13;;;10.70;;
35909;SDS011;22004;49.120;-0.200;2023-06-14T12:53:17;26.35;;;10.20;;
35909;SDS011;22004;49.120;-0.200;2023-06-14T12:55:43;28.08;;;9.77;;
35909;SDS011;22004;49.120;-0.200;2023-06-14T12:58:09;22.58;;;9.30;;
35909;SDS011;22004;49.120;-0.200;2023-06-14T13:00:35;27.92;;;9.80;;
35909;SDS011;22004;49.120;-0.200;2023-06-14T13:03:00;25.27;;;9.30;;
35909;SDS011;22004;49.120;-0.200;2023-06-14T13:05:25;21.60;;;10.32;;
35909;SDS011;22004;49.120;-0.200;2023-06-14T13:07:51;27.05;;;9.55;;
35909;SDS011;22004;49.120;-0.200;2023-06-14T13:10:17;25.65;;;9.18;;
35909;SDS011;22004;49.120;-0.200;2023-06-14T13:12:42;26.88;;;9.38;;
35909;SDS011;22004;49.120;-0.200;2023-06-14T13:15:08;28.50;;;9.65;;
35909;SDS011;22004;49.120;-0.200;2023-06-14T13:17:34;21.08;;;8.65;;
35909;SDS011;22004;49.120;-0.200;2023-06-14T13:20:06;28.08;;;9.45;;
35909;SDS011;22004;49.120;-0.200;2023-06-14T13:22:33;21.08;;;10.00;;
35909;SDS011;22004;49.120;-0.200;2023-06-14T13:24:59;28.60;;;9.32;;
35909;SDS011;22004;49.120;-0.200;2023-06-14T13:27:25;20.73;;;9.27;;
35909;SDS011;22004;49.120;-0.200;2023-06-14T13:29:51;31.88;;;9.15;;
35909;SDS011;22004;49.120;-0.200;2023-06-14T13:32:17;23.40;;;9.30;;
35909;SDS011;22004;49.120;-0.200;2023-06-14T13:34:42;29.83;;;9.07;;
35909;SDS011;22004;49.120;-0.200;2023-06-14T13:37:07;23.60;;;9.45;;
35909;SDS011;22004;49.120;-0.200;2023-06-14T13:39:33;22.58;;;9.57;;
35909;SDS011;22004;49.120;-0.200;2023-06-14T13:41:58;25.60;;;9.07;;
35909;SDS011;22004;49.120;-0.200;2023-06-14T13:44:24;34.17;;;9.50;;
35909;SDS011;22004;49.120;-0.200;2023-06-14T13:46:50;26.83;;;9.35;;
35909;SDS011;22004;49.120;-0.200;2023-06-14T13:49:15;26.67;;;9.35;;
35909;SDS011;22004;49.120;-0.200;2023-06-14T13:51:41;22.95;;;9.68;;
35909;SDS011;22004;49.120;-0.200;2023-06-14T13:54:07;19.90;;;8.70;;
35909;SDS011;22004;49.120;-0.200;2023-06-14T13:56:32;23.80;;;9.50;;
35909;SDS011;22004;49.120;-0.200;2023-06-14T13:58:58;24.77;;;9.63;;
35909;SDS011;22004;49.120;-0.200;2023-06-14T14:01:25;23.88;;;10.27;;
35909;SDS011;22004;49.120;-0.200;2023-06-14T14:03:51;19.10;;;8.95;;
35909;SDS011;22004;49.120;-0.200;2023-06-14T14:06:16;18.67;;;8.70;;
35909;SDS011;22004;49.120;-0.200;2023-06-14T14:08:42;19.52;;;9.13;;
35909;SDS011;22004;49.120;-0.200;2023-06-14T14:11:08;24.50;;;8.15;;
35909;SDS011;22004;49.120;-0.200;2023-06-14T14:13:34;24.75;;;8.07;;
35909;SDS011;22004;49.120;-0.200;2023-06-14T14:16:04;19.00;;;7.45;;
35909;SDS011;22004;49.120;-0.200;2023-06-14T14:18:30;26.77;;;9.43;;
35909;SDS011;22004;49.120;-0.200;2023-06-14T14:20:55;24.52;;;9.77;;
35909;SDS011;22004;49.120;-0.200;2023-06-14T14:23:21;29.83;;;10.27;;
35909;SDS011;22004;49.120;-0.200;2023-06-14T14:25:47;19.75;;;8.85;;
35909;SDS011;22004;49.120;-0.200;2023-06-14T14:28:12;23.10;;;9.27;;